sensor_id;sensor_type;location;lat;lon;timestamp;P1;durP1;ratioP1;P2;durP2;ratioP2
67762;SDS011;54566;52.022;5.582;2024-01-15T00:01:41;6.40;;;1.30;;
67762;SDS011;54566;52.022;5.582;2024-01-15T00:04:10;10.95;;;1.85;;
67762;SDS011;54566;52.022;5.582;2024-01-15T00:06:36;9.43;;;1.58;;
67762;SDS011;54566;52.022;5.582;2024-01-15T00:09:02;6.15;;;1.35;;
67762;SDS011;54566;52.022;5.582;2024-01-15T00:11:27;13.02;;;1.92;;
67762;SDS011;54566;52.022;5.582;2024-01-15T00:13:53;10.82;;;1.42;;
67762;SDS011;54566;52.022;5.582;2024-01-15T00:16:19;8.38;;;1.50;;
67762;SDS011;54566;52.022;5.582;2024-01-15T00:18:44;5.43;;;1.40;;
67762;SDS011;54566;52.022;5.582;2024-01-15T00:21:10;9.30;;;1.15;;
67762;SDS011;54566;52.022;5.582;2024-01-15T00:23:36;7.93;;;1.13;;
67762;SDS011;54566;52.022;5.582;2024-01-15T00:26:01;16.83;;;2.55;;
67762;SDS011;54566;52.022;5.582;2024-01-15T00:28:27;6.00;;;1.55;;
67762;SDS011;54566;52.022;5.582;2024-01-15T00:30:53;8.75;;;1.48;;
67762;SDS011;54566;52.022;5.582;2024-01-15T00:33:21;16.60;;;1.52;;
67762;SDS011;54566;52.022;5.582;2024-01-15T00:35:46;8.65;;;1.30;;
67762;SDS011;54566;52.022;5.582;2024-01-15T00:38:12;8.90;;;1.42;;
67762;SDS011;54566;52.022;5.582;2024-01-15T00:40:38;11.70;;;1.38;;
67762;SDS011;54566;52.022;5.582;2024-01-15T00:43:03;9.35;;;0.90;;
67762;SDS011;54566;52.022;5.582;2024-01-15T00:45:29;9.35;;;1.15;;
67762;SDS011;54566;52.022;5.582;2024-01-15T00:47:55;14.95;;;2.33;;
67762;SDS011;54566;52.022;5.582;2024-01-15T00:50:21;9.40;;;1.85;;
67762;SDS011;54566;52.022;5.582;2024-01-15T00:52:47;9.23;;;1.42;;
67762;SDS011;54566;52.022;5.582;2024-01-15T00:55:12;3.33;;;0.90;;
67762;SDS011;54566;52.022;5.582;2024-01-15T00:57:38;14.60;;;2.20;;
67762;SDS011;54566;52.022;5.582;2024-01-15T01:00:04;8.32;;;2.20;;
67762;SDS011;54566;52.022;5.582;2024-01-15T01:02:32;7.55;;;1.60;;
67762;SDS011;54566;52.022;5.582;2024-01-15T01:05:01;9.13;;;0.93;;
67762;SDS011;54566;52.022;5.582;2024-01-15T01:07:26;10.55;;;1.40;;
67762;SDS011;54566;52.022;5.582;2024-01-15T01:09:52;16.50;;;1.75;;
67762;SDS011;54566;52.022;5.582;2024-01-15T01:12:18;11.02;;;1.52;;
67762;SDS011;54566;52.022;5.582;2024-01-15T01:14:43;14.95;;;1.23;;
67762;SDS011;54566;52.022;5.582;2024-01-15T01:17:11;11.50;;;1.65;;
67762;SDS011;54566;52.022;5.582;2024-01-15T01:19:37;15.38;;;1.55;;
67762;SDS011;54566;52.022;5.582;2024-01-15T01:22:03;9.95;;;1.38;;
67762;SDS011;54566;52.022;5.582;2024-01-15T01:24:28;10.68;;;1.15;;
67762;SDS011;54566;52.022;5.582;2024-01-15T01:26:54;12.60;;;1.48;;
67762;SDS011;54566;52.022;5.582;2024-01-15T01:29:20;13.55;;;1.20;;
67762;SDS011;54566;52.022;5.582;2024-01-15T01:31:46;8.00;;;1.48;;
67762;SDS011;54566;52.022;5.582;2024-01-15T01:34:15;9.55;;;1.55;;
67762;SDS011;54566;52.022;5.582;2024-01-15T01:36:41;12.00;;;1.63;;
67762;SDS011;54566;52.022;5.582;2024-01-15T01:39:08;12.43;;;1.60;;
67762;SDS011;54566;52.022;5.582;2024-01-15T01:41:34;4.90;;;1.52;;
67762;SDS011;54566;52.022;5.582;2024-01-15T01:44:00;7.70;;;1.20;;
67762;SDS011;54566;52.022;5.582;2024-01-15T01:46:27;11.65;;;1.75;;
67762;SDS011;54566;52.022;5.582;2024-01-15T01:48:54;15.00;;;1.45;;
67762;SDS011;54566;52.022;5.582;2024-01-15T01:51:23;9.48;;;1.65;;
67762;SDS011;54566;52.022;5.582;2024-01-15T01:53:50;15.57;;;1.55;;
67762;SDS011;54566;52.022;5.582;2024-01-15T01:56:16;18.23;;;1.30;;
67762;SDS011;54566;52.022;5.582;2024-01-15T01:58:43;10.52;;;1.50;;
67762;SDS011;54566;52.022;5.582;2024-01-15T02:01:10;10.90;;;1.23;;
67762;SDS011;54566;52.022;5.582;2024-01-15T02:03:38;6.78;;;1.50;;
67762;SDS011;54566;52.022;5.582;2024-01-15T02:06:05;7.32;;;1.20;;
67762;SDS011;54566;52.022;5.582;2024-01-15T02:08:31;8.27;;;1.42;;
67762;SDS011;54566;52.022;5.582;2024-01-15T02:10:58;11.50;;;0.88;;
67762;SDS011;54566;52.022;5.582;2024-01-15T02:13:23;10.45;;;1.55;;
67762;SDS011;54566;52.022;5.582;2024-01-15T02:15:49;7.57;;;1.20;;
67762;SDS011;54566;52.022;5.582;2024-01-15T02:18:16;8.73;;;1.50;;
67762;SDS011;54566;52.022;5.582;2024-01-15T02:20:42;10.80;;;1.42;;
67762;SDS011;54566;52.022;5.582;2024-01-15T02:25:37;18.42;;;1.48;;
67762;SDS011;54566;52.022;5.582;2024-01-15T02:28:09;5.40;;;1.48;;
67762;SDS011;54566;52.022;5.582;2024-01-15T02:30:39;12.00;;;1.98;;
67762;SDS011;54566;52.022;5.582;2024-01-15T02:33:07;13.68;;;1.63;;
67762;SDS011;54566;52.022;5.582;2024-01-15T02:35:34;9.23;;;1.38;;
67762;SDS011;54566;52.022;5.582;2024-01-15T02:38:06;12.27;;;1.80;;
67762;SDS011;54566;52.022;5.582;2024-01-15T02:40:33;11.32;;;1.50;;
67762;SDS011;54566;52.022;5.582;2024-01-15T02:43:00;9.15;;;1.60;;
67762;SDS011;54566;52.022;5.582;2024-01-15T02:45:28;14.75;;;1.45;;
67762;SDS011;54566;52.022;5.582;2024-01-15T02:47:55;10.27;;;1.50;;
67762;SDS011;54566;52.022;5.582;2024-01-15T02:50:21;6.93;;;1.55;;
67762;SDS011;54566;52.022;5.582;2024-01-15T02:52:46;11.35;;;2.85;;
67762;SDS011;54566;52.022;5.582;2024-01-15T02:55:15;7.75;;;1.33;;
67762;SDS011;54566;52.022;5.582;2024-01-15T02:57:41;9.55;;;1.17;;
67762;SDS011;54566;52.022;5.582;2024-01-15T03:00:07;11.45;;;1.83;;
67762;SDS011;54566;52.022;5.582;2024-01-15T03:02:38;7.55;;;1.25;;
67762;SDS011;54566;52.022;5.582;2024-01-15T03:05:05;5.50;;;1.00;;
67762;SDS011;54566;52.022;5.582;2024-01-15T03:07:32;6.80;;;1.33;;
67762;SDS011;54566;52.022;5.582;2024-01-15T03:09:58;6.70;;;0.95;;
67762;SDS011;54566;52.022;5.582;2024-01-15T03:12:24;6.45;;;0.88;;
67762;SDS011;54566;52.022;5.582;2024-01-15T03:14:50;3.13;;;0.98;;
67762;SDS011;54566;52.022;5.582;2024-01-15T03:17:15;7.93;;;1.02;;
67762;SDS011;54566;52.022;5.582;2024-01-15T03:19:42;3.47;;;0.95;;
67762;SDS011;54566;52.022;5.582;2024-01-15T03:22:07;5.65;;;0.93;;
67762;SDS011;54566;52.022;5.582;2024-01-15T03:24:34;3.58;;;0.60;;
67762;SDS011;54566;52.022;5.582;2024-01-15T03:27:00;8.38;;;0.90;;
67762;SDS011;54566;52.022;5.582;2024-01-15T03:29:26;7.53;;;1.25;;
67762;SDS011;54566;52.022;5.582;2024-01-15T03:31:52;7.22;;;1.02;;
67762;SDS011;54566;52.022;5.582;2024-01-15T03:34:20;7.63;;;1.10;;
67762;SDS011;54566;52.022;5.582;2024-01-15T03:36:46;6.82;;;1.17;;
67762;SDS011;54566;52.022;5.582;2024-01-15T03:39:11;10.85;;;1.40;;
67762;SDS011;54566;52.022;5.582;2024-01-15T03:41:37;9.35;;;1.38;;
67762;SDS011;54566;52.022;5.582;2024-01-15T03:44:03;9.70;;;1.08;;
67762;SDS011;54566;52.022;5.582;2024-01-15T03:46:28;15.60;;;1.70;;
67762;SDS011;54566;52.022;5.582;2024-01-15T03:48:54;19.23;;;1.60;;
67762;SDS011;54566;52.022;5.582;2024-01-15T03:51:21;10.48;;;1.50;;
67762;SDS011;54566;52.022;5.582;2024-01-15T03:53:48;5.93;;;1.08;;
67762;SDS011;54566;52.022;5.582;2024-01-15T03:56:13;13.13;;;1.45;;
67762;SDS011;54566;52.022;5.582;2024-01-15T03:58:39;10.40;;;1.55;;
67762;SDS011;54566;52.022;5.582;2024-01-15T04:01:07;5.47;;;1.33;;
67762;SDS011;54566;52.022;5.582;2024-01-15T04:03:40;9.70;;;1.27;;
67762;SDS011;54566;52.022;5.582;2024-01-15T04:06:06;11.90;;;1.20;;
67762;SDS011;54566;52.022;5.582;2024-01-15T04:08:31;6.50;;;1.40;;
67762;SDS011;54566;52.022;5.582;2024-01-15T04:10:57;15.02;;;1.40;;
67762;SDS011;54566;52.022;5.582;2024-01-15T04:13:22;6.03;;;1.25;;
67762;SDS011;54566;52.022;5.582;2024-01-15T04:15:48;7.03;;;1.15;;
67762;SDS011;54566;52.022;5.582;2024-01-15T04:18:15;6.18;;;1.13;;
67762;SDS011;54566;52.022;5.582;2024-01-15T04:20:42;10.75;;;1.50;;
67762;SDS011;54566;52.022;5.582;2024-01-15T04:23:08;5.22;;;1.13;;
67762;SDS011;54566;52.022;5.582;2024-01-15T04:25:34;7.25;;;1.23;;
67762;SDS011;54566;52.022;5.582;2024-01-15T04:27:59;10.80;;;1.25;;
67762;SDS011;54566;52.022;5.582;2024-01-15T04:30:25;7.18;;;1.10;;
67762;SDS011;54566;52.022;5.582;2024-01-15T04:32:51;13.57;;;1.38;;
67762;SDS011;54566;52.022;5.582;2024-01-15T04:35:16;11.48;;;1.27;;
67762;SDS011;54566;52.022;5.582;2024-01-15T04:37:42;7.70;;;1.20;;
67762;SDS011;54566;52.022;5.582;2024-01-15T04:40:08;7.97;;;0.90;;
67762;SDS011;54566;52.022;5.582;2024-01-15T04:42:34;8.07;;;1.50;;
67762;SDS011;54566;52.022;5.582;2024-01-15T04:45:00;7.72;;;1.52;;
67762;SDS011;54566;52.022;5.582;2024-01-15T04:47:26;4.55;;;1.45;;
67762;SDS011;54566;52.022;5.582;2024-01-15T04:49:51;7.70;;;1.25;;
67762;SDS011;54566;52.022;5.582;2024-01-15T04:52:17;7.85;;;1.40;;
67762;SDS011;54566;52.022;5.582;2024-01-15T04:54:46;8.55;;;0.95;;
67762;SDS011;54566;52.022;5.582;2024-01-15T04:57:12;7.97;;;1.08;;
67762;SDS011;54566;52.022;5.582;2024-01-15T04:59:38;9.05;;;1.10;;
67762;SDS011;54566;52.022;5.582;2024-01-15T05:02:04;15.45;;;1.45;;
67762;SDS011;54566;52.022;5.582;2024-01-15T05:04:30;6.53;;;1.35;;
67762;SDS011;54566;52.022;5.582;2024-01-15T05:06:58;5.25;;;1.02;;
67762;SDS011;54566;52.022;5.582;2024-01-15T05:09:23;10.63;;;1.02;;
67762;SDS011;54566;52.022;5.582;2024-01-15T05:11:49;7.03;;;1.48;;
67762;SDS011;54566;52.022;5.582;2024-01-15T05:14:15;10.82;;;1.27;;
67762;SDS011;54566;52.022;5.582;2024-01-15T05:16:47;4.65;;;1.10;;
67762;SDS011;54566;52.022;5.582;2024-01-15T05:19:13;4.30;;;1.00;;
67762;SDS011;54566;52.022;5.582;2024-01-15T05:21:39;11.00;;;2.25;;
67762;SDS011;54566;52.022;5.582;2024-01-15T05:24:05;4.32;;;1.30;;
67762;SDS011;54566;52.022;5.582;2024-01-15T05:26:31;3.47;;;1.13;;
67762;SDS011;54566;52.022;5.582;2024-01-15T05:28:56;3.88;;;0.95;;
67762;SDS011;54566;52.022;5.582;2024-01-15T05:31:22;5.13;;;1.23;;
67762;SDS011;54566;52.022;5.582;2024-01-15T05:33:48;6.40;;;1.13;;
67762;SDS011;54566;52.022;5.582;2024-01-15T05:36:14;6.43;;;0.98;;
67762;SDS011;54566;52.022;5.582;2024-01-15T05:38:39;4.38;;;0.88;;
67762;SDS011;54566;52.022;5.582;2024-01-15T05:41:05;8.27;;;1.35;;
67762;SDS011;54566;52.022;5.582;2024-01-15T05:43:37;9.05;;;1.10;;
67762;SDS011;54566;52.022;5.582;2024-01-15T05:46:05;5.13;;;1.02;;
67762;SDS011;54566;52.022;5.582;2024-01-15T05:48:34;5.10;;;1.00;;
67762;SDS011;54566;52.022;5.582;2024-01-15T05:51:00;4.95;;;0.70;;
67762;SDS011;54566;52.022;5.582;2024-01-15T05:53:26;6.93;;;1.00;;
67762;SDS011;54566;52.022;5.582;2024-01-15T05:55:51;3.10;;;0.80;;
67762;SDS011;54566;52.022;5.582;2024-01-15T05:58:17;4.32;;;0.75;;
67762;SDS011;54566;52.022;5.582;2024-01-15T06:01:04;4.20;;;1.08;;
67762;SDS011;54566;52.022;5.582;2024-01-15T06:04:26;13.60;;;1.67;;
67762;SDS011;54566;52.022;5.582;2024-01-15T06:06:51;4.55;;;1.20;;
67762;SDS011;54566;52.022;5.582;2024-01-15T06:09:18;8.95;;;1.73;;
67762;SDS011;54566;52.022;5.582;2024-01-15T06:11:45;6.40;;;1.45;;
67762;SDS011;54566;52.022;5.582;2024-01-15T06:14:11;6.03;;;1.60;;
67762;SDS011;54566;52.022;5.582;2024-01-15T06:16:41;3.50;;;1.23;;
67762;SDS011;54566;52.022;5.582;2024-01-15T06:41:00;2.58;;;1.30;;
67762;SDS011;54566;52.022;5.582;2024-01-15T06:43:29;6.03;;;1.58;;
67762;SDS011;54566;52.022;5.582;2024-01-15T06:46:00;3.63;;;1.70;;
67762;SDS011;54566;52.022;5.582;2024-01-15T06:48:26;8.48;;;1.60;;
67762;SDS011;54566;52.022;5.582;2024-01-15T06:50:52;5.15;;;1.75;;
67762;SDS011;54566;52.022;5.582;2024-01-15T06:53:18;4.75;;;1.70;;
67762;SDS011;54566;52.022;5.582;2024-01-15T06:55:43;4.25;;;1.80;;
67762;SDS011;54566;52.022;5.582;2024-01-15T06:58:09;3.92;;;1.50;;
67762;SDS011;54566;52.022;5.582;2024-01-15T07:00:35;5.20;;;1.30;;
67762;SDS011;54566;52.022;5.582;2024-01-15T07:03:01;4.50;;;1.60;;
67762;SDS011;54566;52.022;5.582;2024-01-15T07:05:27;3.00;;;1.38;;
67762;SDS011;54566;52.022;5.582;2024-01-15T07:07:54;2.17;;;1.30;;
67762;SDS011;54566;52.022;5.582;2024-01-15T07:10:23;2.60;;;1.38;;
67762;SDS011;54566;52.022;5.582;2024-01-15T07:12:49;1.50;;;1.23;;
67762;SDS011;54566;52.022;5.582;2024-01-15T07:15:15;3.13;;;1.40;;
67762;SDS011;54566;52.022;5.582;2024-01-15T07:17:41;2.10;;;1.23;;
67762;SDS011;54566;52.022;5.582;2024-01-15T07:20:07;1.27;;;1.17;;
67762;SDS011;54566;52.022;5.582;2024-01-15T07:22:35;2.75;;;1.50;;
67762;SDS011;54566;52.022;5.582;2024-01-15T07:25:01;3.83;;;1.83;;
67762;SDS011;54566;52.022;5.582;2024-01-15T07:27:26;2.70;;;1.30;;
67762;SDS011;54566;52.022;5.582;2024-01-15T07:29:52;3.17;;;1.70;;
67762;SDS011;54566;52.022;5.582;2024-01-15T07:32:18;4.82;;;1.30;;
67762;SDS011;54566;52.022;5.582;2024-01-15T07:34:43;3.03;;;1.67;;
67762;SDS011;54566;52.022;5.582;2024-01-15T07:37:09;5.05;;;1.60;;
67762;SDS011;54566;52.022;5.582;2024-01-15T07:39:35;5.18;;;1.90;;
67762;SDS011;54566;52.022;5.582;2024-01-15T07:42:05;7.03;;;2.00;;
67762;SDS011;54566;52.022;5.582;2024-01-15T07:44:31;7.82;;;1.88;;
67762;SDS011;54566;52.022;5.582;2024-01-15T07:46:58;4.32;;;2.65;;
67762;SDS011;54566;52.022;5.582;2024-01-15T07:49:24;3.42;;;1.60;;
67762;SDS011;54566;52.022;5.582;2024-01-15T07:51:49;5.38;;;2.95;;
67762;SDS011;54566;52.022;5.582;2024-01-15T07:54:15;7.22;;;3.47;;
67762;SDS011;54566;52.022;5.582;2024-01-15T07:56:57;6.85;;;2.60;;
67762;SDS011;54566;52.022;5.582;2024-01-15T07:59:29;7.77;;;2.73;;
67762;SDS011;54566;52.022;5.582;2024-01-15T08:01:55;11.20;;;5.25;;
67762;SDS011;54566;52.022;5.582;2024-01-15T08:04:20;7.25;;;3.92;;
67762;SDS011;54566;52.022;5.582;2024-01-15T08:06:47;5.93;;;2.55;;
67762;SDS011;54566;52.022;5.582;2024-01-15T08:09:13;5.55;;;1.80;;
67762;SDS011;54566;52.022;5.582;2024-01-15T08:11:39;4.93;;;2.05;;
67762;SDS011;54566;52.022;5.582;2024-01-15T08:14:06;4.75;;;2.10;;
67762;SDS011;54566;52.022;5.582;2024-01-15T08:16:33;3.97;;;1.92;;
67762;SDS011;54566;52.022;5.582;2024-01-15T08:18:59;4.85;;;2.13;;
67762;SDS011;54566;52.022;5.582;2024-01-15T08:21:25;5.88;;;2.30;;
67762;SDS011;54566;52.022;5.582;2024-01-15T08:23:53;5.47;;;2.25;;
67762;SDS011;54566;52.022;5.582;2024-01-15T08:26:19;3.38;;;2.28;;
67762;SDS011;54566;52.022;5.582;2024-01-15T08:28:44;4.15;;;2.03;;
67762;SDS011;54566;52.022;5.582;2024-01-15T08:31:10;9.65;;;2.30;;
67762;SDS011;54566;52.022;5.582;2024-01-15T08:33:35;5.07;;;2.22;;
67762;SDS011;54566;52.022;5.582;2024-01-15T08:36:01;7.47;;;2.55;;
67762;SDS011;54566;52.022;5.582;2024-01-15T08:38:27;6.35;;;2.50;;
67762;SDS011;54566;52.022;5.582;2024-01-15T08:40:53;6.90;;;2.45;;
67762;SDS011;54566;52.022;5.582;2024-01-15T08:43:22;8.23;;;2.30;;
67762;SDS011;54566;52.022;5.582;2024-01-15T08:45:47;4.93;;;2.20;;
67762;SDS011;54566;52.022;5.582;2024-01-15T08:48:14;8.27;;;2.30;;
67762;SDS011;54566;52.022;5.582;2024-01-15T08:50:43;5.70;;;2.55;;
67762;SDS011;54566;52.022;5.582;2024-01-15T08:53:14;9.07;;;2.30;;
67762;SDS011;54566;52.022;5.582;2024-01-15T08:55:44;8.48;;;2.88;;
67762;SDS011;54566;52.022;5.582;2024-01-15T08:58:13;11.88;;;3.10;;
67762;SDS011;54566;52.022;5.582;2024-01-15T09:00:42;10.82;;;2.90;;
67762;SDS011;54566;52.022;5.582;2024-01-15T09:03:08;8.98;;;2.65;;
67762;SDS011;54566;52.022;5.582;2024-01-15T09:05:34;14.27;;;2.72;;
67762;SDS011;54566;52.022;5.582;2024-01-15T09:08:00;4.43;;;2.72;;
67762;SDS011;54566;52.022;5.582;2024-01-15T09:10:25;7.00;;;2.63;;
67762;SDS011;54566;52.022;5.582;2024-01-15T09:12:51;10.18;;;3.60;;
67762;SDS011;54566;52.022;5.582;2024-01-15T09:15:17;9.25;;;3.60;;
67762;SDS011;54566;52.022;5.582;2024-01-15T09:17:43;9.75;;;2.40;;
67762;SDS011;54566;52.022;5.582;2024-01-15T09:20:11;8.90;;;2.13;;
67762;SDS011;54566;52.022;5.582;2024-01-15T09:22:39;11.30;;;6.28;;
67762;SDS011;54566;52.022;5.582;2024-01-15T09:25:08;12.45;;;4.32;;
67762;SDS011;54566;52.022;5.582;2024-01-15T09:27:37;15.32;;;6.47;;
67762;SDS011;54566;52.022;5.582;2024-01-15T09:30:03;12.65;;;4.60;;
67762;SDS011;54566;52.022;5.582;2024-01-15T09:32:30;4.78;;;1.30;;
67762;SDS011;54566;52.022;5.582;2024-01-15T09:34:55;8.60;;;3.30;;
67762;SDS011;54566;52.022;5.582;2024-01-15T09:37:21;8.48;;;5.07;;
67762;SDS011;54566;52.022;5.582;2024-01-15T09:39:48;7.80;;;1.70;;
67762;SDS011;54566;52.022;5.582;2024-01-15T09:42:15;7.40;;;1.70;;
67762;SDS011;54566;52.022;5.582;2024-01-15T09:44:41;7.25;;;1.50;;
67762;SDS011;54566;52.022;5.582;2024-01-15T09:47:07;7.25;;;2.67;;
67762;SDS011;54566;52.022;5.582;2024-01-15T09:49:34;6.60;;;1.73;;
67762;SDS011;54566;52.022;5.582;2024-01-15T09:51:59;1.58;;;1.00;;
67762;SDS011;54566;52.022;5.582;2024-01-15T09:54:26;2.75;;;1.00;;
67762;SDS011;54566;52.022;5.582;2024-01-15T09:56:52;7.30;;;1.50;;
67762;SDS011;54566;52.022;5.582;2024-01-15T09:59:19;2.25;;;1.00;;
67762;SDS011;54566;52.022;5.582;2024-01-15T10:01:47;6.47;;;1.10;;
67762;SDS011;54566;52.022;5.582;2024-01-15T10:04:15;4.60;;;1.10;;
67762;SDS011;54566;52.022;5.582;2024-01-15T10:06:46;8.20;;;1.70;;
67762;SDS011;54566;52.022;5.582;2024-01-15T10:09:17;3.70;;;1.15;;
67762;SDS011;54566;52.022;5.582;2024-01-15T10:11:43;6.70;;;1.52;;
67762;SDS011;54566;52.022;5.582;2024-01-15T10:14:10;4.45;;;1.30;;
67762;SDS011;54566;52.022;5.582;2024-01-15T10:16:39;3.38;;;1.40;;
67762;SDS011;54566;52.022;5.582;2024-01-15T10:19:05;5.32;;;2.17;;
67762;SDS011;54566;52.022;5.582;2024-01-15T10:21:32;2.65;;;1.08;;
67762;SDS011;54566;52.022;5.582;2024-01-15T10:23:59;4.13;;;1.13;;
67762;SDS011;54566;52.022;5.582;2024-01-15T10:26:26;14.15;;;1.65;;
67762;SDS011;54566;52.022;5.582;2024-01-15T10:28:52;5.15;;;1.85;;
67762;SDS011;54566;52.022;5.582;2024-01-15T10:31:17;2.83;;;1.80;;
67762;SDS011;54566;52.022;5.582;2024-01-15T10:33:45;4.95;;;1.70;;
67762;SDS011;54566;52.022;5.582;2024-01-15T10:36:11;7.18;;;1.95;;
67762;SDS011;54566;52.022;5.582;2024-01-15T10:38:37;6.93;;;1.52;;
67762;SDS011;54566;52.022;5.582;2024-01-15T10:41:03;6.78;;;2.42;;
67762;SDS011;54566;52.022;5.582;2024-01-15T10:43:29;7.53;;;1.90;;
67762;SDS011;54566;52.022;5.582;2024-01-15T10:45:55;11.65;;;1.95;;
67762;SDS011;54566;52.022;5.582;2024-01-15T10:48:20;7.18;;;1.85;;
67762;SDS011;54566;52.022;5.582;2024-01-15T10:50:46;11.80;;;2.72;;
67762;SDS011;54566;52.022;5.582;2024-01-15T10:53:13;14.45;;;2.15;;
67762;SDS011;54566;52.022;5.582;2024-01-15T10:55:41;10.05;;;2.20;;
67762;SDS011;54566;52.022;5.582;2024-01-15T10:58:07;6.68;;;1.80;;
67762;SDS011;54566;52.022;5.582;2024-01-15T11:00:34;6.50;;;1.75;;
67762;SDS011;54566;52.022;5.582;2024-01-15T11:03:02;4.10;;;1.80;;
67762;SDS011;54566;52.022;5.582;2024-01-15T11:05:33;3.40;;;1.50;;
67762;SDS011;54566;52.022;5.582;2024-01-15T11:08:02;4.93;;;1.42;;
67762;SDS011;54566;52.022;5.582;2024-01-15T11:13:14;8.75;;;1.83;;
67762;SDS011;54566;52.022;5.582;2024-01-15T11:18:30;8.75;;;1.83;;
67762;SDS011;54566;52.022;5.582;2024-01-15T11:23:54;6.97;;;1.50;;
67762;SDS011;54566;52.022;5.582;2024-01-15T11:29:05;7.93;;;2.10;;
67762;SDS011;54566;52.022;5.582;2024-01-15T11:34:03;8.13;;;1.60;;
67762;SDS011;54566;52.022;5.582;2024-01-15T11:37:16;9.48;;;1.48;;
67762;SDS011;54566;52.022;5.582;2024-01-15T11:44:21;6.95;;;1.75;;
67762;SDS011;54566;52.022;5.582;2024-01-15T11:47:09;12.27;;;2.53;;
67762;SDS011;54566;52.022;5.582;2024-01-15T11:57:41;8.10;;;1.50;;
67762;SDS011;54566;52.022;5.582;2024-01-15T12:00:10;27.73;;;2.85;;
67762;SDS011;54566;52.022;5.582;2024-01-15T12:02:38;8.88;;;1.73;;
67762;SDS011;54566;52.022;5.582;2024-01-15T12:05:08;6.18;;;1.33;;
67762;SDS011;54566;52.022;5.582;2024-01-15T12:07:38;10.90;;;3.67;;
67762;SDS011;54566;52.022;5.582;2024-01-15T12:10:08;3.75;;;1.20;;
67762;SDS011;54566;52.022;5.582;2024-01-15T12:15:35;14.90;;;2.60;;
67762;SDS011;54566;52.022;5.582;2024-01-15T12:18:02;12.52;;;2.47;;
67762;SDS011;54566;52.022;5.582;2024-01-15T12:20:31;8.18;;;1.95;;
67762;SDS011;54566;52.022;5.582;2024-01-15T12:22:58;5.82;;;1.35;;
67762;SDS011;54566;52.022;5.582;2024-01-15T12:25:24;5.10;;;0.93;;
67762;SDS011;54566;52.022;5.582;2024-01-15T12:27:52;4.57;;;1.42;;
67762;SDS011;54566;52.022;5.582;2024-01-15T12:30:18;7.07;;;1.23;;
67762;SDS011;54566;52.022;5.582;2024-01-15T12:32:44;7.03;;;1.27;;
67762;SDS011;54566;52.022;5.582;2024-01-15T12:35:12;2.80;;;1.05;;
67762;SDS011;54566;52.022;5.582;2024-01-15T12:37:41;8.07;;;1.10;;
67762;SDS011;54566;52.022;5.582;2024-01-15T12:40:08;6.68;;;1.30;;
67762;SDS011;54566;52.022;5.582;2024-01-15T12:42:35;5.63;;;1.52;;
67762;SDS011;54566;52.022;5.582;2024-01-15T12:45:02;3.85;;;1.00;;
67762;SDS011;54566;52.022;5.582;2024-01-15T12:47:30;2.72;;;0.98;;
67762;SDS011;54566;52.022;5.582;2024-01-15T12:49:57;3.47;;;1.33;;
67762;SDS011;54566;52.022;5.582;2024-01-15T12:52:28;6.07;;;1.33;;
67762;SDS011;54566;52.022;5.582;2024-01-15T12:54:56;3.03;;;1.20;;
67762;SDS011;54566;52.022;5.582;2024-01-15T12:57:22;8.02;;;1.27;;
67762;SDS011;54566;52.022;5.582;2024-01-15T12:59:50;1.05;;;0.73;;
67762;SDS011;54566;52.022;5.582;2024-01-15T13:02:19;8.90;;;1.40;;
67762;SDS011;54566;52.022;5.582;2024-01-15T13:04:45;5.47;;;1.58;;
67762;SDS011;54566;52.022;5.582;2024-01-15T13:07:10;4.72;;;1.10;;
67762;SDS011;54566;52.022;5.582;2024-01-15T13:09:36;8.10;;;1.38;;
67762;SDS011;54566;52.022;5.582;2024-01-15T13:12:02;4.80;;;1.80;;
67762;SDS011;54566;52.022;5.582;2024-01-15T13:14:28;5.85;;;1.23;;
67762;SDS011;54566;52.022;5.582;2024-01-15T13:16:55;2.75;;;0.98;;
67762;SDS011;54566;52.022;5.582;2024-01-15T13:19:21;4.25;;;1.13;;
67762;SDS011;54566;52.022;5.582;2024-01-15T13:21:49;6.65;;;1.25;;
67762;SDS011;54566;52.022;5.582;2024-01-15T13:24:16;3.90;;;1.10;;
67762;SDS011;54566;52.022;5.582;2024-01-15T13:26:42;4.97;;;1.20;;
67762;SDS011;54566;52.022;5.582;2024-01-15T13:29:11;5.68;;;0.80;;
67762;SDS011;54566;52.022;5.582;2024-01-15T13:31:43;7.05;;;1.10;;
67762;SDS011;54566;52.022;5.582;2024-01-15T13:37:11;5.10;;;1.10;;
67762;SDS011;54566;52.022;5.582;2024-01-15T13:42:34;5.82;;;1.00;;
67762;SDS011;54566;52.022;5.582;2024-01-15T13:45:03;15.90;;;1.95;;
67762;SDS011;54566;52.022;5.582;2024-01-15T13:47:49;5.70;;;1.10;;
67762;SDS011;54566;52.022;5.582;2024-01-15T13:50:15;7.07;;;1.30;;
67762;SDS011;54566;52.022;5.582;2024-01-15T13:52:41;7.20;;;1.10;;
67762;SDS011;54566;52.022;5.582;2024-01-15T13:55:08;11.68;;;1.38;;
67762;SDS011;54566;52.022;5.582;2024-01-15T13:57:34;10.38;;;1.20;;
67762;SDS011;54566;52.022;5.582;2024-01-15T13:59:59;8.23;;;1.17;;
67762;SDS011;54566;52.022;5.582;2024-01-15T14:02:25;10.23;;;1.85;;
67762;SDS011;54566;52.022;5.582;2024-01-15T14:04:51;8.18;;;2.13;;
67762;SDS011;54566;52.022;5.582;2024-01-15T14:07:16;8.48;;;1.45;;
67762;SDS011;54566;52.022;5.582;2024-01-15T14:09:42;9.90;;;1.30;;
67762;SDS011;54566;52.022;5.582;2024-01-15T14:12:08;4.88;;;1.25;;
67762;SDS011;54566;52.022;5.582;2024-01-15T14:14:34;7.93;;;2.60;;
67762;SDS011;54566;52.022;5.582;2024-01-15T14:17:02;7.40;;;2.35;;
67762;SDS011;54566;52.022;5.582;2024-01-15T14:19:29;8.73;;;2.13;;
67762;SDS011;54566;52.022;5.582;2024-01-15T14:21:55;10.82;;;1.92;;
67762;SDS011;54566;52.022;5.582;2024-01-15T14:24:21;7.15;;;1.40;;
67762;SDS011;54566;52.022;5.582;2024-01-15T14:26:49;7.50;;;1.65;;
67762;SDS011;54566;52.022;5.582;2024-01-15T14:29:17;10.20;;;1.50;;
67762;SDS011;54566;52.022;5.582;2024-01-15T14:31:45;6.60;;;1.65;;
67762;SDS011;54566;52.022;5.582;2024-01-15T14:34:12;4.63;;;1.40;;
67762;SDS011;54566;52.022;5.582;2024-01-15T14:36:37;13.13;;;2.00;;
67762;SDS011;54566;52.022;5.582;2024-01-15T14:39:03;8.40;;;1.30;;
67762;SDS011;54566;52.022;5.582;2024-01-15T14:41:29;10.80;;;2.08;;
67762;SDS011;54566;52.022;5.582;2024-01-15T14:43:58;5.63;;;1.52;;
67762;SDS011;54566;52.022;5.582;2024-01-15T14:46:24;10.18;;;1.88;;
67762;SDS011;54566;52.022;5.582;2024-01-15T14:48:52;17.45;;;1.92;;
67762;SDS011;54566;52.022;5.582;2024-01-15T14:51:18;16.63;;;2.10;;
67762;SDS011;54566;52.022;5.582;2024-01-15T14:53:45;10.25;;;1.70;;
67762;SDS011;54566;52.022;5.582;2024-01-15T14:56:10;14.00;;;2.70;;
67762;SDS011;54566;52.022;5.582;2024-01-15T14:58:38;8.73;;;2.33;;
67762;SDS011;54566;52.022;5.582;2024-01-15T15:01:03;9.00;;;2.10;;
67762;SDS011;54566;52.022;5.582;2024-01-15T15:03:34;16.60;;;1.77;;
67762;SDS011;54566;52.022;5.582;2024-01-15T15:06:03;12.57;;;1.90;;
67762;SDS011;54566;52.022;5.582;2024-01-15T15:08:38;10.70;;;2.22;;
67762;SDS011;54566;52.022;5.582;2024-01-15T15:11:04;12.77;;;1.77;;
67762;SDS011;54566;52.022;5.582;2024-01-15T15:13:29;12.43;;;2.20;;
67762;SDS011;54566;52.022;5.582;2024-01-15T15:16:01;17.05;;;2.10;;
67762;SDS011;54566;52.022;5.582;2024-01-15T15:18:29;7.30;;;1.60;;
67762;SDS011;54566;52.022;5.582;2024-01-15T15:20:57;11.88;;;1.58;;
67762;SDS011;54566;52.022;5.582;2024-01-15T15:23:26;13.07;;;1.70;;
67762;SDS011;54566;52.022;5.582;2024-01-15T15:25:52;5.70;;;1.50;;
67762;SDS011;54566;52.022;5.582;2024-01-15T15:28:18;14.90;;;2.30;;
67762;SDS011;54566;52.022;5.582;2024-01-15T15:30:43;7.95;;;1.70;;
67762;SDS011;54566;52.022;5.582;2024-01-15T15:33:09;14.50;;;2.25;;
67762;SDS011;54566;52.022;5.582;2024-01-15T15:35:42;14.32;;;2.22;;
67762;SDS011;54566;52.022;5.582;2024-01-15T15:38:12;12.38;;;1.90;;
67762;SDS011;54566;52.022;5.582;2024-01-15T15:40:44;11.63;;;2.42;;
67762;SDS011;54566;52.022;5.582;2024-01-15T15:43:10;13.57;;;3.50;;